Travis Air Force Base
KSUU : now visible

Airfield :











YOU CAN JOIN US ON...

 
LOGIN :

Register | Disclaimer

   EN    FR    IT 

 









Legend :    VFR   Marginal VFR   IFR   Intensive IFR   Very Intensive IFR
Visi :
Ceiling :
>= 8 km
>= 3000ft
5 to 8 km
1000 to 3000 ft
1500m to 5 km
500 to 1000 ft
800 to 1500m
200 to 500 ft
< 800m
< 200 ft
Symbols :   Thunderstorms  Fog  Heavy snow  Heavy precipitations  Wind > 20 kt






- Airport Elevation : 62 ft


KSUU - Travis Air Force Base

CURRENT METAR :
  • 291458Z AUTO 23005KT 10SM CLR 05/04 A3028 RMK AO2 SLP261 T00510038 55003 $

EXPIRED METARs :
  • 291358Z AUTO 16004KT 10SM OVC120 05/04 A3028 RMK AO2 SLP261 T00530041 $
  • 291258Z AUTO 24004KT 10SM FEW130 04/02 A3027 RMK AO2 VIS 3/4 RWY03L VIS 1 1/4 RWY03R VIS 1 1/4 RWY21R SLP257 T00370024 $

TAF TAF KSUU
Valid from the 29 at 11:00 until the 30 at 17:00 UTC


291102Z 2911/3017 30006KT 9999 SCT030 QNH3024INS
BECMG 2919/2920 32012G18KT 9999 SCT100 QNH3015INS
BECMG 3002/3003 23009KT 9999 SCT100 QNH3018INS TX18/2922Z TN04/2915Z



MET'MAP, your aeronautical weather chart ! - Copyright ORBIFLY December 2007 - Disclaimer

ORBIFLY MET'MAP TEAM :

Programming & Development : Alexandra Zaïnal
Concept & original design : Baudouin d'Aumeries
Assistance for programming : Marc-Olivier Méhu
Technical & hardware support : Manuel Goepfert

Contact : metmap@orbifly.com




SOURCES & CREDITS :

   NOAA       Earth
Advisory